Portada
METAR-TAF:

METAR-TAF

Aeropuertos :

Aeropuerto Internacional de Des Moines

Des Moines, Iowa, Estados Unidos

latitud: 41-32-16N, longitud: 093-39-58W, altitud: 291 m

Observación

El informe se hizo hace 14 minutos, a las 09:54 UTC
Viento 5 kt del noreste
Temperatura 6°C
Humedad 56%
Presión 1019 hPa
Visibilidad: 16.1 km
Cielo nuboso a una altura de 25000 ft

METAR: KDSM 310954Z 04005KT 10SM BKN250 06/M02 A3008 RMK AO2 SLP187 T00561017

Hora: 05:08 (10:08 UTC)

Pronóstico

El informe se hizo hace 4 horas y 48 minutos, a las 05:20 UTC
Pronóstico válido del 31 a las 06 UTC al 01 a las 06 UTC
Viento 5 kt del este-noreste
Visibilidad: 10 km
Nubes dispersas a una altura de 25000 ft
A partir de las 01 a las 0000 UTC
Viento 6 kt del este-sureste
Visibilidad: 10 km
Cielo nuboso a una altura de 25000 ft

TAF: KDSM 310520Z 3106/0106 07005KT P6SM SCT250 FM010000 11006KT P6SM BKN250

Observaciones y pronósticos meteorológicos de más de 4000 aeropuertos (mensajes METAR y TAF).

Los puntos amarillos y rojos representan las estaciones disponibles.

Ponga el ratón en el punto deseado para ver el nombre de la estación.

Haga clic para ver las observaciones y los pronósticos meteorológicos.

Para cambiar el mapa : haga clic en los botones verdes con una cruz de color negro para hacer un zoom, en el botón verde con un guión para alejar o en las flechas verdes para mapas adyacentes.


METAR-TAF: